WetterOnline ( https://www.wetteronline.ch )

Wetter aktuell Ghedi

Aktuelles Wetter: Ghedi (97m)

6-stündlich | Neueste Meldungen
Ortszeit Temperatur Wetter
Di, 02.06. 14:00 26.0° C leicht bewölkt
Di, 02.06. 8:00 20.0° C wolkenlos
Di, 02.06. 2:00 20.8° C leicht bewölkt
Mo, 01.06. 20:00 25.2° C leicht bewölkt
Mo, 01.06. 14:00 25.0° C leicht bewölkt
Mo, 01.06. 8:00 18.8° C wolkenlos
Mo, 01.06. 2:00 17.5° C leicht bewölkt
So, 31.05. 20:00 23.2° C wolkenlos
Ortszeit Temperatur Wetter
Di, 02.06. 18:00 25.0° C wolkig, nach Gewitter
Di, 02.06. 17:55 25° C leicht bewölkt
Di, 02.06. 17:00 26.2° C Gewitter
Di, 02.06. 16:55 26° C leichte Gewitter
Di, 02.06. 16:24 27° C Gewitter
Di, 02.06. 16:00 27.0° C wolkig
Di, 02.06. 15:55 27° C leicht bewölkt
Di, 02.06. 15:00 26.2° C leicht bewölkt
Di, 02.06. 14:55 26° C leicht bewölkt
Di, 02.06. 14:00 26.0° C leicht bewölkt
Ortszeit Relative Feuchte Sichtweite
Di, 02.06. 14:00 54% 10 km
Di, 02.06. 8:00 76% 10 km
Di, 02.06. 2:00 68% 10 km
Mo, 01.06. 20:00 48% 10 km
Mo, 01.06. 14:00 51% 10 km
Mo, 01.06. 8:00 78% 10 km
Mo, 01.06. 2:00 85% 10 km
So, 31.05. 20:00 50% 20 km
Ortszeit Relative Feuchte Sichtweite
Di, 02.06. 18:00 53% 10 km
Di, 02.06. 17:55 54% >10 km
Di, 02.06. 17:00 51% 10 km
Di, 02.06. 16:55 51% >10 km
Di, 02.06. 16:24 51% >10 km
Di, 02.06. 16:00 52% 10 km
Di, 02.06. 15:55 51% >10 km
Di, 02.06. 15:00 52% 10 km
Di, 02.06. 14:55 54% >10 km
Di, 02.06. 14:00 54% 10 km
Ortszeit Niederschlagsmenge Niederschlagsart
Di, 02.06. 14:00 0.0 l/m2 in 6 Std. -
Di, 02.06. 8:00 0.0 l/m2 in 12 Std. -
Di, 02.06. 2:00 0.0 l/m2 in 6 Std. -
Mo, 01.06. 20:00 0.0 l/m2 in 12 Std. -
Mo, 01.06. 14:00 0.0 l/m2 in 6 Std. -
Mo, 01.06. 8:00 0.0 l/m2 in 12 Std. -
Mo, 01.06. 2:00 0.0 l/m2 in 6 Std. -
So, 31.05. 20:00 0.0 l/m2 in 12 Std. -
Ortszeit Niederschlagsmenge Niederschlagsart
Di, 02.06. 18:00 keine Meldung -
Di, 02.06. 17:55 keine Meldung -
Di, 02.06. 17:00 keine Meldung -
Di, 02.06. 16:55 keine Meldung -
Di, 02.06. 16:24 keine Meldung -
Di, 02.06. 16:00 keine Meldung -
Di, 02.06. 15:55 keine Meldung -
Di, 02.06. 15:00 keine Meldung -
Di, 02.06. 14:55 keine Meldung -
Di, 02.06. 14:00 keine Meldung -
Ortszeit Stärke Spitze Richtung
km/h Bft. km/h Grad Sektor
Di, 02.06. 14:00 9 2 - 290° W
Di, 02.06. 8:00 4 1 - 40° NO
Di, 02.06. 2:00 6 1 - 50° NO
Mo, 01.06. 20:00 6 1 - 150° SO
Mo, 01.06. 14:00 6 1 - 200° S
Mo, 01.06. 8:00 6 1 - 50° NO
Mo, 01.06. 2:00 11 2 - 80° O
So, 31.05. 20:00 6 1 - 270° W
Ortszeit Stärke Spitze Richtung
km/h Bft. km/h Grad Sektor
Di, 02.06. 18:00 19 3 - 300° NW
Di, 02.06. 17:55 19 3 - 300° NW
Di, 02.06. 17:00 19 3 - 360° N
Di, 02.06. 16:55 19 3 - 360° N
Di, 02.06. 16:24 6 1 - 320° NW
Di, 02.06. 16:00 9 2 - 260° W
Di, 02.06. 15:55 9 2 - 260° W
Di, 02.06. 15:00 7 2 - 250° W
Di, 02.06. 14:55 7 2 - 250° W
Di, 02.06. 14:00 9 2 - 290° W
Ortszeit Untergrenze Bedeckung Gattung
total tief tief mittel hoch
Di, 02.06. 14:00 1020 m 3/8 3/8 Cu - -
Di, 02.06. 8:00 - 0/8 0/8 - - -
Di, 02.06. 2:00 3000 m 3/8 3/8 - Ac -
Mo, 01.06. 20:00 4500 m 3/8 3/8 - Ac -
Mo, 01.06. 14:00 1200 m 2/8 2/8 Cu - -
Mo, 01.06. 8:00 - 0/8 0/8 - - -
Mo, 01.06. 2:00 3000 m 2/8 2/8 - Ac -
So, 31.05. 20:00 - 0/8 0/8 - - -
Ortszeit Bedeckungsgrad in Achtel und Wolkenuntergrenze
Di, 02.06. 18:00 1(900m) 3(1050m)
Di, 02.06. 17:55 1-2(900m) 3-4(1050m)
Di, 02.06. 17:00 2(750m) 3(1020m)
Di, 02.06. 16:55 1-2(750m) 3-4(1020m)
Di, 02.06. 16:24 1-2(750m) 3-4(900m)
Di, 02.06. 16:00 3(900m)
Di, 02.06. 15:55 3-4(900m)
Di, 02.06. 15:00 3(900m)
Di, 02.06. 14:55 3-4(900m)
Di, 02.06. 14:00 3(1020m)
Ortszeit Luftdruck NN (hPa) Tendenz (hPa in 3 Std.)
Di, 02.06. 14:00 1012 - 1,8
Di, 02.06. 8:00 1014 - 1,9
Di, 02.06. 2:00 1016 + 1,0
Mo, 01.06. 20:00 1014 - 0,9
Mo, 01.06. 14:00 1016 - 0,8
Mo, 01.06. 8:00 1017 + 0,7
Mo, 01.06. 2:00 1016 + 1,5
So, 31.05. 20:00 1013 - 0,8
Ortszeit Luftdruck NN (hPa) Tendenz (hPa in 3 Std.)
Di, 02.06. 18:00 1009 - 2,2
Di, 02.06. 17:55 1009 keine Meldung
Di, 02.06. 17:00 1010 - 1,5
Di, 02.06. 16:55 1010 keine Meldung
Di, 02.06. 16:24 1010 keine Meldung
Di, 02.06. 16:00 1010 - 2,1
Di, 02.06. 15:55 1010 keine Meldung
Di, 02.06. 15:00 1011 - 2,1
Di, 02.06. 14:55 1011 keine Meldung
Di, 02.06. 14:00 1012 - 1,8
Ortszeit Schneehöhe (cm)
Di, 02.06. 14:00 -
Di, 02.06. 8:00 0
Di, 02.06. 2:00 -
Mo, 01.06. 20:00 -
Mo, 01.06. 14:00 -
Mo, 01.06. 8:00 0
Mo, 01.06. 2:00 -
So, 31.05. 20:00 -
Ortszeit Schneehöhe (cm)
Di, 02.06. 18:00 -
Di, 02.06. 17:55 -
Di, 02.06. 17:00 -
Di, 02.06. 16:55 -
Di, 02.06. 16:24 -
Di, 02.06. 16:00 -
Di, 02.06. 15:55 -
Di, 02.06. 15:00 -
Di, 02.06. 14:55 -
Di, 02.06. 14:00 -
Link zu dieser Seite / Seite empfehlen

Das Wetter in ...